Time;durP1;ratioP1;P1;durP2;ratioP2;P2;SDS_P1;SDS_P2;PMS_P1;PMS_P2;Temp;Humidity;BMP_temperature;BMP_pressure;BME280_temperature;BME280_humidity;BME280_pressure;Samples;Min_cycle;Max_cycle;Signal;HPM_P1;HPM_P2
2021/06/18 00:02:08;;;;;;;2.30;2.20;;;16.20;98.50;;;;;;5087572;28;20174;-76
2021/06/18 00:04:34;;;;;;;2.55;1.98;;;16.20;98.50;;;;;;5089314;28;20219;-75
2021/06/18 00:06:59;;;;;;;2.30;2.20;;;16.20;98.50;;;;;;5087524;28;20330;-75
2021/06/18 00:09:25;;;;;;;2.40;2.30;;;16.20;98.50;;;;;;5086576;28;20786;-75
2021/06/18 00:11:51;;;;;;;2.22;2.13;;;16.10;98.50;;;;;;5088310;28;20638;-75
2021/06/18 00:14:16;;;;;;;2.42;1.75;;;16.10;98.50;;;;;;5088347;28;20633;-76
2021/06/18 00:16:42;;;;;;;2.17;2.03;;;16.10;98.50;;;;;;5084060;28;20443;-76
2021/06/18 00:19:08;;;;;;;2.67;2.28;;;16.00;98.50;;;;;;5087732;28;20225;-75
2021/06/18 00:21:34;;;;;;;1.77;1.77;;;16.00;98.50;;;;;;5087662;28;20187;-75
2021/06/18 00:23:59;;;;;;;1.90;1.90;;;15.90;98.50;;;;;;5088744;28;20965;-75
2021/06/18 00:26:25;;;;;;;3.53;1.70;;;15.90;98.50;;;;;;5085355;28;20272;-76
2021/06/18 00:28:51;;;;;;;1.60;1.58;;;15.90;98.50;;;;;;5088770;28;20200;-75
2021/06/18 00:31:17;;;;;;;2.05;1.98;;;15.80;98.50;;;;;;5084568;28;20175;-75
2021/06/18 00:33:43;;;;;;;1.80;1.70;;;15.80;98.50;;;;;;5084237;28;20188;-75
2021/06/18 00:36:09;;;;;;;1.95;1.85;;;15.80;98.50;;;;;;5083944;28;20202;-76
2021/06/18 00:38:35;;;;;;;1.77;1.75;;;15.80;98.40;;;;;;5085674;28;20186;-75
2021/06/18 00:41:01;;;;;;;3.97;2.03;;;;;;;;;;5087377;28;20978;-75
2021/06/18 00:43:27;;;;;;;1.95;1.85;;;15.80;98.50;;;;;;5087056;28;20183;-75
2021/06/18 00:45:52;;;;;;;1.45;1.45;;;15.80;98.50;;;;;;5081223;28;20186;-75
2021/06/18 00:48:21;;;;;;;1.70;1.60;;;15.70;98.50;;;;;;5087679;28;20182;-75
2021/06/18 00:50:48;;;;;;;3.97;1.75;;;15.60;98.50;;;;;;5080783;28;20178;-75
2021/06/18 00:53:15;;;;;;;1.70;1.70;;;15.60;98.50;;;;;;5088915;28;20192;-75
2021/06/18 00:55:41;;;;;;;3.05;1.35;;;15.60;98.50;;;;;;5083656;28;20707;-75
2021/06/18 00:58:08;;;;;;;1.50;1.42;;;15.50;98.50;;;;;;5086463;28;20193;-75
2021/06/18 01:00:34;;;;;;;1.92;1.85;;;15.40;98.50;;;;;;5090934;28;20261;-75
2021/06/18 01:03:00;;;;;;;2.17;1.98;;;15.40;98.50;;;;;;5084382;28;20262;-76
2021/06/18 01:05:26;;;;;;;2.15;2.05;;;15.40;98.50;;;;;;5088414;28;20186;-75
2021/06/18 01:08:28;;;;;;;1.45;1.45;;;15.30;98.50;;;;;;5086382;28;20171;-74
2021/06/18 01:11:05;;;;;;;2.05;1.70;;;15.30;98.50;;;;;;5023931;28;20196;-75
2021/06/18 01:13:52;;;;;;;1.30;1.30;;;15.30;98.50;;;;;;5006365;28;20195;-74
2021/06/18 01:16:33;;;;;;;2.55;1.63;;;15.30;98.50;;;;;;5021758;28;20251;-74
2021/06/18 01:19:39;;;;;;;1.63;1.52;;;15.30;98.50;;;;;;5006288;28;20733;-74
2021/06/18 01:22:08;;;;;;;1.35;1.35;;;15.30;98.50;;;;;;5024438;28;20203;-74
2021/06/18 01:25:00;;;;;;;1.73;1.73;;;15.30;98.50;;;;;;5023712;28;20216;-74
2021/06/18 01:27:31;;;;;;;2.35;1.90;;;15.30;98.50;;;;;;5019366;28;20728;-74
2021/06/18 01:30:19;;;;;;;2.05;1.70;;;15.30;98.50;;;;;;5015206;28;20188;-74
2021/06/18 01:33:03;;;;;;;1.38;1.27;;;15.30;98.50;;;;;;5023577;28;20196;-74
2021/06/18 01:35:37;;;;;;;1.80;1.80;;;15.30;98.50;;;;;;5020741;28;20240;-75
2021/06/18 01:38:06;;;;;;;1.92;1.83;;;15.30;98.50;;;;;;5019074;28;20192;-74
2021/06/18 01:40:33;;;;;;;1.55;1.55;;;15.30;98.50;;;;;;5023096;28;20857;-75
2021/06/18 01:43:01;;;;;;;1.50;1.40;;;15.30;98.50;;;;;;5021758;28;20203;-74
2021/06/18 01:45:28;;;;;;;1.90;1.80;;;15.30;98.50;;;;;;5018418;28;20282;-74
2021/06/18 01:47:56;;;;;;;1.42;1.35;;;15.30;98.50;;;;;;5058029;28;20198;-73
2021/06/18 01:50:24;;;;;;;1.98;1.88;;;15.30;98.50;;;;;;5086978;28;20182;-73
2021/06/18 01:52:55;;;;;;;3.42;1.30;;;15.30;98.50;;;;;;5086316;28;20178;-75
2021/06/18 01:55:25;;;;;;;1.60;1.60;;;15.30;98.50;;;;;;5083815;28;20606;-75
2021/06/18 01:57:54;;;;;;;2.78;1.73;;;15.30;98.50;;;;;;5083807;28;20575;-73
2021/06/18 02:00:21;;;;;;;5.43;1.73;;;15.30;98.50;;;;;;5088160;28;20174;-73
2021/06/18 02:02:48;;;;;;;1.77;1.77;;;15.30;98.50;;;;;;5084939;28;20240;-73
2021/06/18 02:05:15;;;;;;;2.05;1.75;;;15.30;98.50;;;;;;5087856;28;20520;-73
2021/06/18 02:07:42;;;;;;;1.58;1.48;;;15.30;98.50;;;;;;5086762;28;20584;-73
2021/06/18 02:10:10;;;;;;;1.65;1.55;;;15.30;98.50;;;;;;5087811;28;20560;-74
2021/06/18 02:12:37;;;;;;;2.05;1.95;;;15.30;98.50;;;;;;5086154;28;20178;-73
2021/06/18 02:15:06;;;;;;;2.40;2.30;;;15.30;98.50;;;;;;5087682;28;20197;-74
2021/06/18 02:17:33;;;;;;;1.73;1.63;;;15.30;98.50;;;;;;5081405;28;20189;-74
2021/06/18 02:20:00;;;;;;;2.58;2.38;;;15.30;98.50;;;;;;5082082;28;20190;-74
2021/06/18 02:22:26;;;;;;;3.63;2.15;;;15.30;98.50;;;;;;5085624;28;20178;-75
2021/06/18 02:24:53;;;;;;;2.17;1.50;;;15.30;98.50;;;;;;5084332;28;20690;-74
2021/06/18 02:27:19;;;;;;;2.15;1.58;;;15.20;98.50;;;;;;5085135;28;20239;-75
2021/06/18 02:29:45;;;;;;;2.13;2.00;;;15.20;98.50;;;;;;5084301;28;20181;-74
2021/06/18 02:32:13;;;;;;;1.95;1.85;;;15.20;98.50;;;;;;5086134;28;20209;-74
2021/06/18 02:34:40;;;;;;;1.85;1.65;;;15.20;98.50;;;;;;5089981;28;20276;-74
2021/06/18 02:37:08;;;;;;;1.45;1.35;;;15.20;98.50;;;;;;5086781;28;20205;-74
2021/06/18 02:39:34;;;;;;;1.77;1.67;;;15.20;98.50;;;;;;5079962;28;20214;-75
2021/06/18 02:41:59;;;;;;;3.35;2.30;;;15.20;98.50;;;;;;5091685;28;20221;-75
2021/06/18 02:44:25;;;;;;;2.22;1.80;;;15.20;98.50;;;;;;5091288;28;20190;-74
2021/06/18 02:47:11;;;;;;;2.53;2.10;;;15.20;98.50;;;;;;5090519;28;20255;-74
2021/06/18 02:49:44;;;;;;;1.92;1.80;;;15.10;98.50;;;;;;5087426;28;20217;-75
2021/06/18 02:52:15;;;;;;;2.05;1.95;;;15.10;98.50;;;;;;5087057;28;20205;-75
2021/06/18 02:54:45;;;;;;;1.92;1.80;;;15.10;98.50;;;;;;5087625;28;20265;-74
2021/06/18 02:57:19;;;;;;;2.60;2.45;;;15.10;98.50;;;;;;5089492;28;20229;-75
2021/06/18 03:00:07;;;;;;;2.25;2.15;;;15.00;98.50;;;;;;5088327;28;20206;-75
2021/06/18 03:02:41;;;;;;;2.95;1.55;;;15.00;98.50;;;;;;5088667;28;20190;-74
2021/06/18 03:05:08;;;;;;;2.03;1.83;;;15.00;98.50;;;;;;5088706;28;20186;-75
2021/06/18 03:07:36;;;;;;;1.70;1.70;;;15.00;98.50;;;;;;5090380;28;20201;-74
2021/06/18 03:10:08;;;;;;;3.40;1.75;;;15.00;98.50;;;;;;5088306;28;21171;-74
2021/06/18 03:12:38;;;;;;;2.00;1.90;;;15.00;98.50;;;;;;5081144;28;20215;-74
2021/06/18 03:15:08;;;;;;;1.65;1.65;;;14.90;98.50;;;;;;5088902;28;20191;-74
2021/06/18 03:17:37;;;;;;;1.85;1.75;;;14.90;98.50;;;;;;5096472;28;20675;-74
2021/06/18 03:20:09;;;;;;;2.42;2.22;;;14.90;98.50;;;;;;5089784;28;20206;-74
2021/06/18 03:22:37;;;;;;;1.80;1.80;;;14.90;98.50;;;;;;5088588;28;20186;-73
2021/06/18 03:25:05;;;;;;;2.45;2.35;;;14.90;98.50;;;;;;5087802;28;20170;-75
2021/06/18 03:27:36;;;;;;;1.75;1.65;;;14.90;98.50;;;;;;5084149;28;20216;-73
2021/06/18 03:30:04;;;;;;;1.83;1.80;;;14.90;98.50;;;;;;5089315;28;20182;-75
2021/06/18 03:32:32;;;;;;;5.65;2.00;;;14.90;98.50;;;;;;5082859;28;20384;-75
2021/06/18 03:34:58;;;;;;;1.52;1.52;;;14.90;98.50;;;;;;5088258;28;20261;-76
2021/06/18 03:37:25;;;;;;;1.25;1.25;;;14.90;98.50;;;;;;5090494;28;20210;-75
2021/06/18 03:39:52;;;;;;;1.50;1.40;;;15.00;98.50;;;;;;5087741;28;20190;-75
2021/06/18 03:42:18;;;;;;;1.23;1.23;;;15.00;98.50;;;;;;5089704;28;20562;-75
2021/06/18 03:44:45;;;;;;;3.45;1.08;;;15.00;98.50;;;;;;5088216;28;20182;-75
2021/06/18 03:47:12;;;;;;;4.05;1.95;;;15.10;98.50;;;;;;5083261;28;20186;-75
2021/06/18 03:49:41;;;;;;;1.83;1.75;;;15.10;98.50;;;;;;5088730;28;20562;-75
2021/06/18 03:52:07;;;;;;;3.20;1.98;;;15.20;98.50;;;;;;5087691;28;20182;-75
2021/06/18 03:54:33;;;;;;;2.53;2.28;;;15.20;98.50;;;;;;5085239;28;20839;-75
2021/06/18 03:57:01;;;;;;;1.83;1.83;;;15.20;98.50;;;;;;5089016;28;20574;-75
2021/06/18 03:59:29;;;;;;;2.08;1.85;;;15.20;98.50;;;;;;5089062;28;20602;-75
2021/06/18 04:01:57;;;;;;;2.78;1.80;;;15.30;98.50;;;;;;5087935;28;20812;-74
2021/06/18 04:04:24;;;;;;;2.03;2.03;;;15.20;98.50;;;;;;5089887;28;20178;-74
2021/06/18 04:06:51;;;;;;;4.00;2.15;;;15.20;98.50;;;;;;5085668;28;20860;-75
2021/06/18 04:09:18;;;;;;;3.08;1.83;;;15.20;98.50;;;;;;5087393;28;20190;-75
2021/06/18 04:11:47;;;;;;;2.65;2.53;;;15.10;98.50;;;;;;5088927;28;20178;-75
2021/06/18 04:14:14;;;;;;;2.50;2.40;;;15.10;98.50;;;;;;5087332;28;20179;-75
2021/06/18 04:16:40;;;;;;;4.30;2.95;;;15.10;98.50;;;;;;5089458;28;20215;-75
2021/06/18 04:19:10;;;;;;;5.63;3.80;;;15.10;98.50;;;;;;5088940;28;20744;-75
2021/06/18 04:21:41;;;;;;;7.30;5.10;;;15.10;98.50;;;;;;5088210;28;20178;-74
2021/06/18 04:24:09;;;;;;;7.25;5.20;;;15.20;98.50;;;;;;5089263;28;20277;-74
2021/06/18 04:26:34;;;;;;;10.45;4.78;;;15.20;98.50;;;;;;5086238;28;20220;-75
2021/06/18 04:29:00;;;;;;;4.65;4.25;;;;;;;;;;5086211;28;20629;-73
2021/06/18 04:31:26;;;;;;;4.03;3.38;;;15.30;98.50;;;;;;5077984;28;20191;-73
2021/06/18 04:33:52;;;;;;;5.03;4.25;;;15.40;98.50;;;;;;5080691;28;20678;-73
2021/06/18 04:36:17;;;;;;;6.65;4.57;;;15.40;98.50;;;;;;5081184;28;20209;-73
2021/06/18 04:38:43;;;;;;;5.97;4.38;;;15.50;98.50;;;;;;5084740;28;20184;-72
2021/06/18 04:41:09;;;;;;;4.68;4.13;;;15.50;98.50;;;;;;5085619;28;20675;-73
2021/06/18 04:43:35;;;;;;;4.20;3.80;;;15.60;98.50;;;;;;5086960;28;20276;-73
2021/06/18 04:46:00;;;;;;;6.38;4.47;;;15.60;98.50;;;;;;5080628;28;20190;-72
2021/06/18 04:48:28;;;;;;;4.40;3.53;;;15.70;98.50;;;;;;5088291;28;20197;-73
2021/06/18 04:50:54;;;;;;;3.67;3.33;;;15.70;98.50;;;;;;5088904;28;20178;-72
2021/06/18 04:53:20;;;;;;;10.75;4.43;;;15.80;98.50;;;;;;5087671;28;20259;-72
2021/06/18 04:55:46;;;;;;;7.65;4.60;;;15.90;98.50;;;;;;5081982;28;20210;-73
2021/06/18 04:58:13;;;;;;;9.07;3.85;;;15.90;98.50;;;;;;5088234;28;20199;-73
2021/06/18 05:00:39;;;;;;;17.58;5.30;;;16.00;98.50;;;;;;5088266;28;20681;-73
2021/06/18 05:03:04;;;;;;;9.70;4.65;;;16.00;98.50;;;;;;5088441;28;20183;-73
2021/06/18 05:05:32;;;;;;;4.88;4.35;;;16.10;98.50;;;;;;5088114;28;20197;-73
2021/06/18 05:07:58;;;;;;;4.30;3.47;;;16.20;98.50;;;;;;5086050;28;20703;-73
2021/06/18 05:10:25;;;;;;;9.55;4.15;;;16.30;98.50;;;;;;5086006;28;20253;-73
2021/06/18 05:12:52;;;;;;;6.45;4.13;;;16.40;98.50;;;;;;5084715;28;20189;-74
2021/06/18 05:15:19;;;;;;;5.70;3.85;;;16.40;98.50;;;;;;5082516;28;20630;-73
2021/06/18 05:17:45;;;;;;;6.70;3.80;;;16.50;98.50;;;;;;5083715;28;20182;-72
2021/06/18 05:20:12;;;;;;;11.20;3.95;;;16.60;98.50;;;;;;5085102;28;20189;-76
2021/06/18 05:22:38;;;;;;;11.45;3.35;;;16.80;98.50;;;;;;5083347;28;20182;-74
2021/06/18 05:25:05;;;;;;;4.60;3.17;;;16.90;98.30;;;;;;5084240;28;20628;-75
2021/06/18 05:27:30;;;;;;;3.45;3.20;;;16.90;98.10;;;;;;5086810;28;20637;-75
2021/06/18 05:29:56;;;;;;;3.15;2.95;;;17.10;97.80;;;;;;5085080;28;20194;-74
2021/06/18 05:32:22;;;;;;;3.28;3.08;;;17.10;97.80;;;;;;5080959;28;20224;-73
2021/06/18 05:34:48;;;;;;;3.58;3.28;;;17.20;97.60;;;;;;5082692;28;20189;-73
2021/06/18 05:37:13;;;;;;;14.15;4.15;;;17.20;97.30;;;;;;5081824;28;20221;-72
2021/06/18 05:39:42;;;;;;;6.55;4.43;;;17.30;96.70;;;;;;5081299;28;20270;-74
2021/06/18 05:42:08;;;;;;;7.25;4.38;;;17.30;96.20;;;;;;5081586;28;20553;-73
2021/06/18 05:44:34;;;;;;;4.78;4.45;;;17.40;96.60;;;;;;5084221;28;20182;-74
2021/06/18 05:47:00;;;;;;;4.15;3.80;;;17.50;96.30;;;;;;5084227;28;20182;-72
2021/06/18 05:49:25;;;;;;;4.68;3.95;;;17.60;95.90;;;;;;5081418;28;20727;-72
2021/06/18 05:51:51;;;;;;;6.15;4.85;;;17.70;95.90;;;;;;5085163;28;20261;-72
2021/06/18 05:54:17;;;;;;;5.53;4.57;;;17.90;96.20;;;;;;5081710;28;20207;-72
2021/06/18 05:56:42;;;;;;;5.80;4.57;;;17.90;95.80;;;;;;5085044;28;20216;-72
2021/06/18 05:59:08;;;;;;;8.50;4.25;;;18.00;95.80;;;;;;5086720;28;20186;-72
2021/06/18 06:01:34;;;;;;;7.05;4.63;;;18.00;94.50;;;;;;5084585;28;20239;-73
2021/06/18 06:04:00;;;;;;;7.00;4.93;;;18.10;94.20;;;;;;5083149;28;20208;-71
2021/06/18 06:06:26;;;;;;;9.50;5.03;;;18.20;94.40;;;;;;5086190;28;20210;-71
2021/06/18 06:08:53;;;;;;;8.00;4.65;;;18.20;94.30;;;;;;5078811;28;20186;-72
2021/06/18 06:11:23;;;;;;;4.53;4.00;;;18.30;94.30;;;;;;5083238;28;20235;-74
2021/06/18 06:13:50;;;;;;;5.20;4.75;;;18.40;93.50;;;;;;5081374;28;20646;-72
2021/06/18 06:16:16;;;;;;;4.50;4.10;;;18.40;92.90;;;;;;5080700;28;20202;-71
2021/06/18 06:18:42;;;;;;;8.20;4.82;;;18.50;92.70;;;;;;5075530;28;20205;-71
2021/06/18 06:21:08;;;;;;;6.47;5.20;;;18.50;93.20;;;;;;5084667;28;20182;-73
2021/06/18 06:23:33;;;;;;;5.15;4.70;;;18.50;92.50;;;;;;5084918;28;20174;-72
2021/06/18 06:25:59;;;;;;;6.00;5.15;;;18.60;92.90;;;;;;5080745;28;20547;-72
2021/06/18 06:28:25;;;;;;;8.05;4.60;;;18.60;93.10;;;;;;5083066;28;20183;-71
2021/06/18 06:30:51;;;;;;;5.53;5.05;;;18.70;93.10;;;;;;5083384;28;20666;-72
2021/06/18 06:33:17;;;;;;;7.30;4.45;;;18.80;93.10;;;;;;5083728;28;20191;-72
2021/06/18 06:35:42;;;;;;;6.35;5.35;;;18.80;92.60;;;;;;5084849;28;20210;-72
2021/06/18 06:38:08;;;;;;;5.45;4.95;;;18.90;92.50;;;;;;5080712;28;20174;-74
2021/06/18 06:40:34;;;;;;;4.63;4.32;;;19.00;92.20;;;;;;5086052;28;20186;-72
2021/06/18 06:42:59;;;;;;;4.78;4.40;;;19.10;92.30;;;;;;5084435;28;20223;-71
2021/06/18 06:45:25;;;;;;;7.57;5.07;;;19.20;92.60;;;;;;5079684;28;20647;-72
2021/06/18 06:47:51;;;;;;;5.15;4.65;;;19.30;92.30;;;;;;5086701;28;20267;-72
2021/06/18 06:50:18;;;;;;;6.28;4.25;;;19.40;92.20;;;;;;5088891;28;20721;-73
2021/06/18 06:52:44;;;;;;;5.70;4.70;;;19.40;91.20;;;;;;5079048;28;20674;-72
2021/06/18 06:55:11;;;;;;;7.97;4.80;;;19.60;91.50;;;;;;5080295;28;20269;-71
2021/06/18 06:57:40;;;;;;;5.60;4.88;;;19.80;91.50;;;;;;5082574;28;20171;-74
2021/06/18 07:00:06;;;;;;;4.72;3.70;;;19.80;91.10;;;;;;5084333;28;20175;-72
2021/06/18 07:02:32;;;;;;;6.85;4.03;;;19.90;91.00;;;;;;5084559;28;20182;-71
2021/06/18 07:04:58;;;;;;;5.55;4.45;;;20.00;90.10;;;;;;5083008;28;20185;-72
2021/06/18 07:07:24;;;;;;;3.80;3.60;;;20.10;89.90;;;;;;5096713;28;20788;-72
2021/06/18 07:09:49;;;;;;;4.95;4.53;;;20.20;89.70;;;;;;5086675;28;20178;-71
2021/06/18 07:12:15;;;;;;;3.60;3.40;;;20.30;89.90;;;;;;5083417;28;20284;-73
2021/06/18 07:14:40;;;;;;;3.30;3.13;;;20.40;89.40;;;;;;5084953;28;20198;-74
2021/06/18 07:17:07;;;;;;;5.82;3.17;;;20.40;87.10;;;;;;5085962;28;20203;-72
2021/06/18 07:19:34;;;;;;;4.63;3.38;;;20.40;86.80;;;;;;5085898;28;20277;-72
2021/06/18 07:22:01;;;;;;;3.45;2.97;;;20.40;87.10;;;;;;5090001;28;20194;-72
2021/06/18 07:24:26;;;;;;;5.72;3.17;;;20.50;87.00;;;;;;5085539;28;20584;-74
2021/06/18 07:26:52;;;;;;;4.35;3.15;;;20.60;87.60;;;;;;5084247;28;20186;-72
2021/06/18 07:29:19;;;;;;;4.53;3.58;;;20.60;87.80;;;;;;5092506;28;20703;-74
2021/06/18 07:31:44;;;;;;;6.47;3.75;;;20.80;88.20;;;;;;5086318;28;20758;-73
2021/06/18 07:34:10;;;;;;;2.75;2.65;;;20.80;88.20;;;;;;5095879;28;20194;-73
2021/06/18 07:36:36;;;;;;;2.95;2.85;;;20.90;87.20;;;;;;5091661;28;20309;-72
2021/06/18 07:39:03;;;;;;;4.35;2.92;;;21.00;87.20;;;;;;5086909;28;20178;-73
2021/06/18 07:41:30;;;;;;;3.42;2.92;;;21.10;87.00;;;;;;5089495;28;20257;-72
2021/06/18 07:43:56;;;;;;;2.60;2.55;;;21.20;87.10;;;;;;5086721;28;20178;-72
2021/06/18 07:46:24;;;;;;;2.42;2.25;;;21.20;85.70;;;;;;5094487;28;20623;-73
2021/06/18 07:48:50;;;;;;;2.22;2.20;;;21.30;84.10;;;;;;5086876;28;20340;-73
2021/06/18 07:51:17;;;;;;;3.22;2.15;;;21.30;83.70;;;;;;5092125;28;20184;-73
2021/06/18 07:53:43;;;;;;;3.75;2.03;;;21.40;84.00;;;;;;5086124;28;20562;-73
2021/06/18 07:56:09;;;;;;;2.30;2.30;;;21.50;83.90;;;;;;5088037;28;20232;-73
2021/06/18 07:58:38;;;;;;;2.33;2.10;;;21.60;84.40;;;;;;5081290;28;20634;-74
2021/06/18 08:01:03;;;;;;;1.88;1.80;;;21.70;84.50;;;;;;5085289;28;20182;-74
2021/06/18 08:03:29;;;;;;;2.60;2.40;;;21.90;84.00;;;;;;5084637;28;20181;-74
2021/06/18 08:05:55;;;;;;;3.85;2.55;;;22.00;83.90;;;;;;5093048;28;20265;-74
2021/06/18 08:08:20;;;;;;;3.00;2.90;;;22.20;83.70;;;;;;5088531;28;20186;-74
2021/06/18 08:10:46;;;;;;;2.50;2.40;;;22.30;82.20;;;;;;5084630;28;20167;-74
2021/06/18 08:13:12;;;;;;;2.63;2.53;;;22.50;82.80;;;;;;5087255;28;20174;-74
2021/06/18 08:15:38;;;;;;;2.78;2.67;;;22.60;82.20;;;;;;5091447;28;20210;-74
2021/06/18 08:18:03;;;;;;;2.38;2.28;;;22.70;79.90;;;;;;5088713;28;20698;-74
2021/06/18 08:20:29;;;;;;;2.13;1.65;;;22.70;80.70;;;;;;5090596;28;20500;-74
2021/06/18 08:22:56;;;;;;;1.95;1.85;;;22.80;79.00;;;;;;5093911;28;20182;-75
2021/06/18 08:25:22;;;;;;;2.30;2.20;;;22.90;79.90;;;;;;5089274;28;20174;-72
2021/06/18 08:27:48;;;;;;;2.17;2.17;;;22.90;80.50;;;;;;5088344;28;20178;-73
2021/06/18 08:30:15;;;;;;;2.67;2.47;;;23.00;80.70;;;;;;5085359;28;20203;-73
2021/06/18 08:32:40;;;;;;;3.05;2.38;;;23.10;79.70;;;;;;5086223;28;20190;-73
2021/06/18 08:35:06;;;;;;;2.28;2.08;;;23.20;77.90;;;;;;5090509;28;20187;-74
2021/06/18 08:37:32;;;;;;;2.42;2.42;;;23.30;78.90;;;;;;5095462;28;20893;-74
2021/06/18 08:39:58;;;;;;;2.10;2.10;;;23.40;79.20;;;;;;5087090;28;20319;-73
2021/06/18 08:42:25;;;;;;;1.83;1.83;;;23.60;78.60;;;;;;5087108;28;20257;-73
2021/06/18 08:44:51;;;;;;;1.60;1.50;;;23.80;78.10;;;;;;5085041;28;20194;-73
2021/06/18 08:47:17;;;;;;;1.45;1.45;;;23.90;76.20;;;;;;5088485;28;20192;-74
2021/06/18 08:49:42;;;;;;;1.38;1.38;;;24.00;74.10;;;;;;5085382;28;20627;-74
2021/06/18 08:52:08;;;;;;;1.48;1.48;;;24.20;74.00;;;;;;5093182;28;20179;-72
2021/06/18 08:54:42;;;;;;;4.22;1.60;;;24.40;73.90;;;;;;5083167;28;20190;-72
2021/06/18 08:57:09;;;;;;;1.30;1.30;;;24.70;74.50;;;;;;5079998;28;20358;-73
2021/06/18 08:59:34;;;;;;;1.00;1.00;;;25.00;73.00;;;;;;5085881;28;20179;-74
2021/06/18 09:02:00;;;;;;;1.20;1.20;;;25.20;72.10;;;;;;5093423;28;20265;-74
2021/06/18 09:04:26;;;;;;;1.33;1.33;;;25.40;70.70;;;;;;5081827;28;20178;-73
2021/06/18 09:06:58;;;;;;;1.15;1.15;;;25.70;70.00;;;;;;5097995;28;20189;-73
2021/06/18 09:09:27;;;;;;;1.10;1.10;;;25.90;70.40;;;;;;5095817;28;20194;-73
2021/06/18 09:12:04;;;;;;;1.17;1.17;;;26.10;70.70;;;;;;5084463;28;20186;-73
2021/06/18 09:14:31;;;;;;;1.42;1.33;;;26.30;69.90;;;;;;5089108;28;20193;-73
2021/06/18 09:17:06;;;;;;;6.15;1.10;;;26.40;68.60;;;;;;5080918;28;20245;-73
2021/06/18 09:19:34;;;;;;;0.95;0.95;;;26.50;67.00;;;;;;5076978;28;20177;-76
2021/06/18 09:22:12;;;;;;;1.33;1.33;;;26.50;69.00;;;;;;5083617;28;20979;-74
2021/06/18 09:24:44;;;;;;;1.30;1.30;;;26.60;68.90;;;;;;5084959;28;20177;-74
2021/06/18 09:27:11;;;;;;;2.40;1.17;;;26.70;69.70;;;;;;5090202;28;20205;-71
2021/06/18 09:29:37;;;;;;;1.10;1.10;;;26.90;68.90;;;;;;5091492;28;20173;-74
2021/06/18 09:32:12;;;;;;;1.17;1.17;;;27.00;68.10;;;;;;5084477;28;20186;-75
2021/06/18 09:35:00;;;;;;;1.20;1.20;;;27.20;68.70;;;;;;5082842;28;20174;-74
2021/06/18 09:37:35;;;;;;;1.42;1.42;;;27.30;67.60;;;;;;5087648;28;20217;-74
2021/06/18 09:40:07;;;;;;;1.30;1.30;;;27.30;66.20;;;;;;5082008;28;20188;-74
2021/06/18 09:42:35;;;;;;;1.20;1.20;;;27.20;67.30;;;;;;5082220;28;20175;-74
2021/06/18 09:45:06;;;;;;;1.13;1.13;;;27.20;67.70;;;;;;5085187;28;20187;-74
2021/06/18 09:47:32;;;;;;;1.15;1.15;;;27.30;67.80;;;;;;5082789;28;20185;-72
2021/06/18 09:49:58;;;;;;;4.40;1.40;;;27.40;68.30;;;;;;5087831;28;20178;-72
2021/06/18 09:52:25;;;;;;;1.83;1.70;;;27.60;68.70;;;;;;5099214;28;20197;-72
2021/06/18 09:54:53;;;;;;;2.60;1.30;;;27.80;68.50;;;;;;5090473;28;20185;-71
2021/06/18 09:57:38;;;;;;;1.38;1.35;;;27.90;67.90;;;;;;5088605;28;20206;-72
2021/06/18 10:00:09;;;;;;;1.40;1.40;;;28.10;66.10;;;;;;5083015;28;20277;-71
2021/06/18 10:02:39;;;;;;;1.63;1.60;;;28.10;67.90;;;;;;5096310;28;20730;-72
2021/06/18 10:05:09;;;;;;;1.33;1.20;;;28.30;68.00;;;;;;5086995;28;20177;-72
2021/06/18 10:07:36;;;;;;;1.30;1.30;;;28.40;66.70;;;;;;5094189;28;20182;-72
2021/06/18 10:10:05;;;;;;;1.80;1.70;;;28.40;66.00;;;;;;5079248;28;20229;-72
2021/06/18 10:12:31;;;;;;;1.27;1.13;;;28.40;65.30;;;;;;5084314;28;20174;-71
2021/06/18 10:15:04;;;;;;;1.15;1.15;;;28.40;65.60;;;;;;5092378;28;20189;-71
2021/06/18 10:17:30;;;;;;;1.10;1.10;;;28.40;64.80;;;;;;5088616;28;20217;-74
2021/06/18 10:19:56;;;;;;;1.20;1.20;;;28.60;65.80;;;;;;5092433;28;20190;-72
2021/06/18 10:22:23;;;;;;;1.88;1.30;;;28.70;65.70;;;;;;5091815;28;20204;-72
2021/06/18 10:25:04;;;;;;;1.35;1.27;;;28.80;62.40;;;;;;5092698;28;20178;-71
2021/06/18 10:27:38;;;;;;;0.93;0.93;;;28.90;62.10;;;;;;5093021;28;20217;-72
2021/06/18 10:30:25;;;;;;;0.93;0.93;;;28.90;63.80;;;;;;5086082;28;20177;-71
2021/06/18 10:32:52;;;;;;;1.17;1.17;;;28.90;63.20;;;;;;5090938;28;20181;-71
2021/06/18 10:35:49;;;;;;;1.00;1.00;;;29.00;64.70;;;;;;5086600;28;20651;-71
2021/06/18 10:38:30;;;;;;;1.13;1.13;;;29.00;62.70;;;;;;5088669;28;20213;-72
2021/06/18 10:41:02;;;;;;;0.93;0.93;;;29.00;61.60;;;;;;5090884;28;20919;-73
2021/06/18 10:43:38;;;;;;;1.95;1.20;;;28.80;62.10;;;;;;5086424;28;20201;-72
2021/06/18 10:46:06;;;;;;;1.77;1.13;;;28.50;62.00;;;;;;5085569;28;20725;-72
2021/06/18 10:48:49;;;;;;;1.00;1.00;;;28.20;64.70;;;;;;5085529;28;20289;-73
2021/06/18 10:51:30;;;;;;;3.30;1.38;;;27.90;63.30;;;;;;5082663;28;20185;-74
2021/06/18 10:54:05;;;;;;;1.42;1.15;;;27.80;65.60;;;;;;5090832;28;20225;-71
2021/06/18 10:56:46;;;;;;;2.05;1.25;;;27.60;65.80;;;;;;5085664;28;20579;-72
2021/06/18 10:59:39;;;;;;;1.23;1.23;;;27.50;64.80;;;;;;5093262;28;20174;-73
2021/06/18 11:02:23;;;;;;;2.05;1.25;;;27.50;65.00;;;;;;5105164;28;20716;-73
2021/06/18 11:04:55;;;;;;;1.40;1.40;;;27.40;65.80;;;;;;5089670;28;20170;-73
2021/06/18 11:07:33;;;;;;;1.23;1.23;;;27.40;65.90;;;;;;5092971;28;20197;-72
2021/06/18 11:10:06;;;;;;;1.67;1.48;;;27.30;66.70;;;;;;5090795;28;20553;-73
2021/06/18 11:12:58;;;;;;;1.20;1.20;;;27.40;67.00;;;;;;5091379;28;20194;-73
2021/06/18 11:15:23;;;;;;;1.58;1.48;;;27.50;65.70;;;;;;5052261;28;20223;-73
2021/06/18 11:18:11;;;;;;;1.50;1.40;;;27.60;66.50;;;;;;5052122;28;20187;-72
2021/06/18 11:20:36;;;;;;;1.27;1.27;;;27.80;65.80;;;;;;5049024;28;20183;-72
2021/06/18 11:23:16;;;;;;;4.45;1.50;;;27.80;65.20;;;;;;5052489;28;20187;-72
2021/06/18 11:25:45;;;;;;;1.80;1.77;;;27.80;65.50;;;;;;5051956;28;20278;-72
2021/06/18 11:28:23;;;;;;;1.30;1.30;;;27.60;65.40;;;;;;5045781;28;20267;-72
2021/06/18 11:30:59;;;;;;;1.40;1.40;;;27.30;65.80;;;;;;5052224;28;20349;-72
2021/06/18 11:33:37;;;;;;;2.95;1.60;;;27.10;66.20;;;;;;5052650;28;20293;-71
2021/06/18 11:36:06;;;;;;;1.42;1.30;;;27.00;67.40;;;;;;5050812;28;20218;-72
2021/06/18 11:38:34;;;;;;;2.28;1.40;;;27.00;68.70;;;;;;5029895;28;20175;-72
2021/06/18 11:41:04;;;;;;;2.92;1.65;;;26.90;67.90;;;;;;5054157;28;20195;-72
2021/06/18 11:43:31;;;;;;;5.60;1.83;;;26.90;68.40;;;;;;5052287;28;20189;-72
2021/06/18 11:46:00;;;;;;;1.60;1.50;;;26.80;68.30;;;;;;5042940;28;20192;-72
2021/06/18 11:48:27;;;;;;;1.05;1.02;;;26.70;68.50;;;;;;5046795;28;20198;-72
2021/06/18 11:50:53;;;;;;;1.45;1.45;;;26.70;68.90;;;;;;5040387;28;20195;-73
2021/06/18 11:53:20;;;;;;;1.20;1.20;;;26.60;69.10;;;;;;5082968;28;20574;-73
2021/06/18 11:55:58;;;;;;;1.80;1.70;;;26.60;69.60;;;;;;5080460;28;20210;-72
2021/06/18 11:58:41;;;;;;;2.10;1.30;;;26.60;69.10;;;;;;5083256;28;20590;-73
2021/06/18 12:01:18;;;;;;;1.38;1.35;;;26.70;68.80;;;;;;5084139;28;20192;-73
2021/06/18 12:03:46;;;;;;;1.95;1.33;;;26.90;68.30;;;;;;5084493;28;20686;-73
2021/06/18 12:06:18;;;;;;;2.10;1.38;;;27.00;69.40;;;;;;5089719;28;20181;-73
2021/06/18 12:09:19;;;;;;;1.70;1.67;;;27.00;69.80;;;;;;5092563;28;20179;-72
2021/06/18 12:11:47;;;;;;;1.30;1.30;;;27.10;69.10;;;;;;5043484;28;20245;-73
2021/06/18 12:14:15;;;;;;;1.52;1.50;;;27.10;69.30;;;;;;5028815;28;20281;-73
2021/06/18 12:16:46;;;;;;;1.38;1.38;;;27.10;69.10;;;;;;5049057;28;20223;-75
2021/06/18 12:19:28;;;;;;;3.55;1.67;;;27.00;68.60;;;;;;5046057;28;20244;-72
2021/06/18 12:22:08;;;;;;;1.23;1.23;;;27.10;68.40;;;;;;5046283;28;20187;-73
2021/06/18 12:24:57;;;;;;;1.48;1.48;;;27.20;68.60;;;;;;5046741;28;20215;-72
2021/06/18 12:27:27;;;;;;;1.52;1.35;;;27.40;68.30;;;;;;5042667;28;20199;-73
2021/06/18 12:29:55;;;;;;;1.30;1.30;;;27.50;68.30;;;;;;5039573;28;20192;-75
2021/06/18 12:32:29;;;;;;;1.30;1.30;;;27.70;67.00;;;;;;5028631;28;20179;-73
2021/06/18 12:35:00;;;;;;;1.60;1.60;;;27.90;66.80;;;;;;5049720;28;20198;-72
2021/06/18 12:37:28;;;;;;;1.42;1.42;;;28.10;67.40;;;;;;5043046;28;20221;-73
2021/06/18 12:40:04;;;;;;;1.17;1.17;;;28.30;66.10;;;;;;5044168;28;20289;-73
2021/06/18 12:42:31;;;;;;;1.08;1.08;;;28.30;65.10;;;;;;5026358;28;20214;-73
2021/06/18 12:45:04;;;;;;;1.20;1.10;;;28.40;63.80;;;;;;5043200;28;20212;-74
2021/06/18 12:47:31;;;;;;;1.25;1.15;;;28.50;64.40;;;;;;5068058;28;20619;-72
2021/06/18 12:49:56;;;;;;;1.15;1.15;;;28.60;64.60;;;;;;5087406;28;20548;-72
2021/06/18 12:52:22;;;;;;;1.10;1.10;;;28.60;64.30;;;;;;5090551;28;20177;-73
2021/06/18 12:54:48;;;;;;;1.13;1.13;;;28.60;64.10;;;;;;5088062;28;20167;-73
2021/06/18 12:57:28;;;;;;;0.93;0.93;;;28.60;63.50;;;;;;5083961;28;20210;-73
2021/06/18 13:00:10;;;;;;;1.30;1.30;;;28.60;63.20;;;;;;5083910;28;20185;-74